Time;durP1;ratioP1;P1;durP2;ratioP2;P2;SDS_P1;SDS_P2;PMS_P1;PMS_P2;Temp;Humidity;BMP_temperature;BMP_pressure;BME280_temperature;BME280_humidity;BME280_pressure;Samples;Min_cycle;Max_cycle;Signal;HPM_P1;HPM_P2
2023/03/22 00:00:16;;;;;;;36.20;29.20;;;;;;;11.83;61.93;100369.52;104945;1257;66100;-52
2023/03/22 00:02:45;;;;;;;36.70;29.70;;;;;;;11.80;61.73;100370.13;106043;1258;62878;-51
2023/03/22 00:05:13;;;;;;;35.00;29.90;;;;;;;11.74;61.57;100370.25;105035;1254;65004;-52
2023/03/22 00:08:05;;;;;;;32.70;28.00;;;;;;;11.67;61.41;100368.38;105163;1260;60562;-51
2023/03/22 00:10:38;;;;;;;29.70;24.80;;;;;;;11.65;61.25;100368.39;104911;1260;60728;-51
2023/03/22 00:13:08;;;;;;;30.80;26.80;;;;;;;11.63;61.25;100368.04;104917;1263;65848;-51
2023/03/22 00:15:37;;;;;;;33.40;29.00;;;;;;;11.60;61.38;100374.09;105155;1260;61384;-51
2023/03/22 00:18:11;;;;;;;35.80;29.10;;;;;;;11.53;61.44;100374.27;104970;1257;64833;-51
2023/03/22 00:20:46;;;;;;;35.00;28.40;;;;;;;11.46;61.70;100372.20;105041;1262;60439;-51
2023/03/22 00:23:15;;;;;;;39.30;30.20;;;;;;;11.42;61.83;100368.57;105046;1260;60628;-51
2023/03/22 00:25:44;;;;;;;35.00;28.80;;;;;;;11.40;62.16;100368.90;105007;1260;66033;-52
2023/03/22 00:28:13;;;;;;;37.60;30.40;;;;;;;11.38;62.20;100369.95;105197;1257;62363;-51
2023/03/22 00:30:56;;;;;;;34.90;28.40;;;;;;;11.35;62.31;100369.99;104977;1258;64144;-51
2023/03/22 00:33:28;;;;;;;34.80;28.90;;;;;;;11.39;62.47;100369.13;105337;1255;60613;-54
2023/03/22 00:36:04;;;;;;;32.50;25.40;;;;;;;11.45;62.52;100366.32;105106;1258;60526;-52
2023/03/22 00:38:35;;;;;;;33.20;26.80;;;;;;;11.50;62.36;100367.35;105544;1260;66233;-51
2023/03/22 00:41:20;;;;;;;34.00;27.60;;;;;;;11.49;62.28;100366.01;105135;1251;62440;-51
2023/03/22 00:43:48;;;;;;;;;;;;;;;11.45;62.32;100365.15;105392;1256;65071;-52
2023/03/22 00:46:18;;;;;;;32.70;29.10;;;;;;;11.40;62.11;100364.56;105148;1254;60441;-54
2023/03/22 00:48:47;;;;;;;33.70;27.80;;;;;;;11.30;62.06;100361.50;105478;1259;60450;-54
2023/03/22 00:51:17;;;;;;;34.20;28.30;;;;;;;11.23;62.26;100364.02;105634;1251;66420;-51
2023/03/22 00:53:48;;;;;;;34.30;28.90;;;;;;;11.15;62.42;100367.11;105395;1258;62400;-51
2023/03/22 00:56:18;;;;;;;36.50;30.20;;;;;;;11.07;62.51;100364.41;105435;1254;64087;-50
2023/03/22 00:58:55;;;;;;;37.00;29.10;;;;;;;11.02;62.86;100365.23;105451;1251;60438;-51
2023/03/22 01:01:24;;;;;;;34.20;28.30;;;;;;;11.06;63.17;100366.04;105214;1258;60557;-52
2023/03/22 01:03:53;;;;;;;35.20;28.10;;;;;;;11.15;63.17;100368.46;105219;1256;66369;-51
2023/03/22 01:06:22;;;;;;;34.30;28.80;;;;;;;11.23;63.25;100371.02;105616;1254;64309;-51
2023/03/22 01:08:53;;;;;;;38.50;28.50;;;;;;;11.28;63.22;100374.08;105394;1257;64920;-51
2023/03/22 01:11:24;;;;;;;36.50;29.50;;;;;;;11.26;63.05;100373.17;105058;1253;60557;-51
2023/03/22 01:13:53;;;;;;;34.50;29.20;;;;;;;11.21;63.03;100372.25;105590;1253;60424;-51
2023/03/22 01:16:22;;;;;;;33.10;29.00;;;;;;;11.15;63.15;100373.92;105543;1253;65192;-52
2023/03/22 01:18:51;;;;;;;37.30;30.60;;;;;;;11.08;63.37;100372.59;105687;1256;61721;-50
2023/03/22 01:21:19;;;;;;;34.10;29.40;;;;;;;11.00;63.66;100376.09;105551;1251;64957;-51
2023/03/22 01:23:50;;;;;;;34.60;27.70;;;;;;;10.92;63.80;100377.53;105351;1257;60365;-51
2023/03/22 01:26:18;;;;;;;32.90;26.60;;;;;;;10.92;63.94;100379.69;105541;1255;60437;-51
2023/03/22 01:28:47;;;;;;;32.90;25.90;;;;;;;10.93;63.98;100379.56;105366;1258;66220;-51
2023/03/22 01:31:15;;;;;;;32.30;26.20;;;;;;;10.94;64.06;100379.50;105169;1256;62731;-51
2023/03/22 01:33:43;;;;;;;35.90;28.50;;;;;;;10.91;64.28;100379.41;104930;1257;65319;-51
2023/03/22 01:36:12;;;;;;;32.00;26.00;;;;;;;10.87;64.34;100382.33;109029;1251;58770;-52
2023/03/22 01:38:40;;;;;;;31.40;25.90;;;;;;;10.84;64.53;100387.70;106917;1259;60316;-52
2023/03/22 01:41:09;;;;;;;33.60;28.20;;;;;;;10.81;64.70;100391.95;104809;1257;66300;-52
2023/03/22 01:43:39;;;;;;;34.70;28.30;;;;;;;10.74;64.72;100392.20;104864;1257;62789;-50
2023/03/22 01:46:08;;;;;;;31.80;27.20;;;;;;;10.67;64.89;100391.03;107407;1257;64709;-50
2023/03/22 01:48:47;;;;;;;31.90;25.80;;;;;;;10.66;65.01;100395.27;105357;1258;60878;-51
2023/03/22 01:51:24;;;;;;;31.80;24.80;;;;;;;10.69;65.02;100396.46;109032;1257;58851;-51
2023/03/22 01:54:36;;;;;;;29.50;25.20;;;;;;;10.74;65.03;100396.24;108285;1256;66481;-51
2023/03/22 01:57:17;;;;;;;31.10;26.20;;;;;;;10.77;65.04;100395.11;104976;1257;62897;-51
2023/03/22 01:59:46;;;;;;;34.50;26.70;;;;;;;10.79;65.19;100394.23;104888;1255;64769;-51
2023/03/22 02:02:30;;;;;;;31.60;25.40;;;;;;;10.82;65.04;100396.42;104962;1255;62895;-51
2023/03/22 02:05:07;;;;;;;31.70;26.90;;;;;;;10.81;64.97;100397.39;105287;1257;60700;-52
2023/03/22 02:07:36;;;;;;;33.00;26.20;;;;;;;10.77;64.93;100399.98;105407;1256;64903;-51
2023/03/22 02:10:22;;;;;;;30.50;24.40;;;;;;;10.73;64.77;100404.04;105167;1255;62766;-51
2023/03/22 02:13:27;;;;;;;32.10;25.40;;;;;;;10.74;64.80;100405.73;105135;1258;64056;-52
2023/03/22 02:16:30;;;;;;;34.40;26.60;;;;;;;10.82;64.91;100405.77;105251;1257;60334;-53
2023/03/22 02:19:10;;;;;;;33.30;25.50;;;;;;;10.88;64.76;100408.96;105288;1253;60451;-51
2023/03/22 02:22:10;;;;;;;34.70;26.00;;;;;;;10.88;64.64;100411.08;105576;1256;66151;-52
2023/03/22 02:25:17;;;;;;;34.80;25.50;;;;;;;10.81;64.43;100413.90;104942;1257;62657;-51
2023/03/22 02:28:01;;;;;;;32.70;26.80;;;;;;;10.72;64.56;100415.85;105503;1256;65310;-50
2023/03/22 02:30:32;;;;;;;31.50;25.50;;;;;;;10.67;64.65;100415.74;104951;1251;60531;-50
2023/03/22 02:33:26;;;;;;;32.20;27.00;;;;;;;10.69;64.61;100417.15;105939;1258;60443;-51
2023/03/22 02:36:10;;;;;;;31.40;25.20;;;;;;;10.74;64.57;100421.34;105096;1254;66525;-51
2023/03/22 02:38:58;;;;;;;35.60;27.20;;;;;;;10.74;64.66;100421.45;105205;1254;62860;-51
2023/03/22 02:41:34;;;;;;;32.10;26.60;;;;;;;10.74;64.68;100422.36;105015;1260;63747;-52
2023/03/22 02:44:26;;;;;;;32.30;26.80;;;;;;;10.72;64.68;100420.06;105521;1256;60485;-52
2023/03/22 02:47:20;;;;;;;32.40;26.10;;;;;;;10.69;64.59;100419.59;105353;1257;60537;-53
2023/03/22 02:49:53;;;;;;;33.20;25.70;;;;;;;10.63;64.62;100415.21;105063;1258;66373;-52
2023/03/22 02:52:34;;;;;;;33.10;26.80;;;;;;;10.62;64.72;100417.91;105143;1256;63430;-52
2023/03/22 02:55:33;;;;;;;31.70;26.00;;;;;;;10.64;64.81;100419.15;105465;1256;65064;-49
2023/03/22 02:58:08;;;;;;;31.70;25.90;;;;;;;10.62;64.84;100423.15;105201;1258;60584;-51
2023/03/22 03:00:37;;;;;;;32.00;26.90;;;;;;;10.57;64.78;100424.23;105604;1255;60534;-51
2023/03/22 03:03:10;;;;;;;33.70;26.70;;;;;;;10.51;64.90;100425.63;105219;1254;66226;-52
2023/03/22 03:05:41;;;;;;;35.60;27.50;;;;;;;10.45;65.03;100430.27;105026;1254;62688;-53
2023/03/22 03:08:10;;;;;;;32.10;24.90;;;;;;;10.39;65.12;100434.23;105285;1255;65030;-53
2023/03/22 03:10:39;;;;;;;29.80;24.90;;;;;;;10.37;64.97;100436.54;104911;1254;60689;-53
2023/03/22 03:13:13;;;;;;;33.70;25.90;;;;;;;10.37;65.03;100443.20;105424;1252;60549;-53
2023/03/22 03:15:42;;;;;;;33.50;25.90;;;;;;;10.42;65.29;100439.81;105501;1260;68202;-53
2023/03/22 03:18:44;;;;;;;30.60;25.40;;;;;;;10.48;65.35;100446.15;105349;1260;61522;-53
2023/03/22 03:21:29;;;;;;;33.80;27.10;;;;;;;10.51;65.29;100450.29;105395;1257;63782;-53
2023/03/22 03:24:19;;;;;;;34.10;27.80;;;;;;;10.51;65.21;100452.30;106007;1260;60572;-52
2023/03/22 03:26:57;;;;;;;35.10;27.20;;;;;;;10.46;65.14;100460.21;105367;1255;60453;-53
2023/03/22 03:29:39;;;;;;;31.70;26.00;;;;;;;10.38;65.18;100463.25;105495;1254;67877;-52
2023/03/22 03:32:11;;;;;;;33.90;25.40;;;;;;;10.37;65.26;100460.89;105605;1255;62611;-52
2023/03/22 03:34:51;;;;;;;31.60;24.60;;;;;;;10.39;65.28;100460.94;105230;1254;64972;-52
2023/03/22 03:37:29;;;;;;;33.50;24.10;;;;;;;10.39;65.21;100465.13;105021;1254;60956;-52
2023/03/22 03:40:10;;;;;;;33.40;26.80;;;;;;;10.33;65.18;100467.16;105146;1254;62220;-52
2023/03/22 03:42:42;;;;;;;32.40;25.50;;;;;;;10.23;65.21;100467.52;105069;1252;66952;-52
2023/03/22 03:46:23;;;;;;;31.20;24.50;;;;;;;10.03;65.91;100470.63;105784;1286;602535;-80
2023/03/22 04:01:23;;;;;;;28.60;21.90;;;;;;;10.23;65.31;100472.41;102593;1288;604076;-47
2023/03/22 04:04:09;;;;;;;26.00;20.50;;;;;;;10.58;64.49;100467.87;107815;1272;94851;-48
2023/03/22 04:06:55;;;;;;;27.10;22.00;;;;;;;10.64;64.51;100467.06;108361;1267;57267;-48
2023/03/22 04:09:27;;;;;;;27.60;21.80;;;;;;;10.65;64.55;100468.21;108256;1267;64606;-48
2023/03/22 04:12:03;;;;;;;25.50;21.10;;;;;;;10.61;64.50;100471.99;108248;1271;62404;-47
2023/03/22 04:14:31;;;;;;;27.20;22.10;;;;;;;10.55;64.43;100478.41;108235;1267;64935;-51
2023/03/22 04:17:00;;;;;;;28.30;22.40;;;;;;;10.47;64.40;100478.90;108233;1267;57084;-49
2023/03/22 04:19:30;;;;;;;26.10;21.90;;;;;;;10.40;64.64;100479.92;108221;1267;57811;-47
2023/03/22 04:21:57;;;;;;;25.30;20.50;;;;;;;10.35;64.67;100481.18;105347;1267;63556;-47
2023/03/22 04:24:23;;;;;;;24.20;20.90;;;;;;;10.33;64.61;100481.70;104327;1270;62609;-47
2023/03/22 04:26:52;;;;;;;24.40;19.90;;;;;;;10.33;64.68;100483.62;104245;1270;64618;-47
2023/03/22 04:29:30;;;;;;;27.50;21.50;;;;;;;10.34;64.92;100483.02;104242;1266;60659;-47
2023/03/22 04:32:05;;;;;;;27.00;21.20;;;;;;;10.36;64.90;100480.99;104254;1271;59675;-47
2023/03/22 04:34:39;;;;;;;26.50;21.00;;;;;;;10.34;65.04;100479.91;104367;1267;65403;-47
2023/03/22 04:37:12;;;;;;;25.10;20.70;;;;;;;10.31;64.94;100483.41;104044;1272;62616;-47
2023/03/22 04:39:53;;;;;;;27.40;20.70;;;;;;;10.28;65.04;100475.42;104588;1273;63942;-47
2023/03/22 04:42:57;;;;;;;28.50;20.70;;;;;;;10.28;65.21;100477.68;103792;1273;59672;-47
2023/03/22 04:45:45;;;;;;;26.90;21.40;;;;;;;10.34;65.14;100480.23;104267;1272;59817;-49
2023/03/22 04:48:14;;;;;;;24.20;20.20;;;;;;;10.38;65.04;100489.53;104175;1270;65205;-49
2023/03/22 04:50:41;;;;;;;26.10;20.10;;;;;;;10.39;65.11;100494.89;104342;1267;61692;-47
2023/03/22 04:53:11;;;;;;;26.40;20.00;;;;;;;10.38;65.02;100499.77;104392;1270;65007;-48
2023/03/22 04:55:38;;;;;;;26.30;19.80;;;;;;;10.33;65.16;100502.94;104517;1268;59719;-48
2023/03/22 04:58:05;;;;;;;26.00;18.90;;;;;;;10.26;65.33;100504.52;104427;1274;59581;-48
2023/03/22 05:00:32;;;;;;;24.30;19.20;;;;;;;10.26;65.41;100508.86;104198;1272;64019;-48
2023/03/22 05:03:02;;;;;;;25.00;19.60;;;;;;;10.31;65.37;100509.00;104445;1270;70962;-47
2023/03/22 05:05:33;;;;;;;23.50;20.10;;;;;;;10.35;65.40;100508.54;104938;1270;64978;-47
2023/03/22 05:08:01;;;;;;;25.70;20.40;;;;;;;10.37;65.42;100511.77;104486;1267;60970;-48
2023/03/22 05:10:29;;;;;;;23.60;19.70;;;;;;;10.34;65.31;100514.27;104370;1270;59998;-48
2023/03/22 05:12:57;;;;;;;25.10;20.30;;;;;;;10.28;65.33;100512.95;104563;1270;65474;-47
2023/03/22 05:15:31;;;;;;;25.20;20.10;;;;;;;10.25;65.48;100515.10;105092;1270;62600;-48
2023/03/22 05:17:58;;;;;;;25.70;19.70;;;;;;;10.24;65.57;100519.53;106186;1272;65366;-47
2023/03/22 05:20:25;;;;;;;25.40;20.80;;;;;;;10.23;65.63;100520.64;108302;1267;57574;-48
2023/03/22 05:23:23;;;;;;;27.40;21.30;;;;;;;10.22;65.76;100524.75;106141;1267;59698;-47
2023/03/22 05:25:53;;;;;;;27.10;20.20;;;;;;;10.22;65.86;100526.00;104545;1267;65562;-47
2023/03/22 05:28:21;;;;;;;23.90;20.40;;;;;;;10.23;65.80;100527.17;104782;1267;62316;-48
2023/03/22 05:30:56;;;;;;;25.90;19.10;;;;;;;10.28;65.70;100527.15;104453;1271;65052;-47
2023/03/22 05:33:45;;;;;;;24.50;20.00;;;;;;;10.29;65.72;100526.00;104425;1269;59583;-47
2023/03/22 05:36:13;;;;;;;23.40;19.80;;;;;;;10.26;66.04;100522.01;104496;1270;61118;-48
2023/03/22 05:38:55;;;;;;;24.00;17.90;;;;;;;10.24;66.15;100522.17;108338;1266;65724;-47
2023/03/22 05:41:23;;;;;;;21.80;17.40;;;;;;;10.24;66.15;100520.74;108319;1267;62867;-47
2023/03/22 05:43:49;;;;;;;21.30;17.10;;;;;;;10.30;66.00;100519.46;108271;1267;64853;-47
2023/03/22 05:46:18;;;;;;;22.10;17.40;;;;;;;10.33;66.00;100519.21;108331;1267;57842;-47
2023/03/22 05:49:08;;;;;;;23.00;17.90;;;;;;;10.36;65.96;100526.19;108302;1266;57357;-46
2023/03/22 05:51:41;;;;;;;21.40;17.10;;;;;;;10.36;65.80;100528.64;106736;1270;64336;-48
2023/03/22 05:54:09;;;;;;;20.60;15.90;;;;;;;10.39;65.57;100530.88;104545;1267;61560;-47
2023/03/22 05:56:40;;;;;;;20.60;15.80;;;;;;;10.42;65.44;100538.91;105053;1257;65235;-48
2023/03/22 05:59:08;;;;;;;20.50;16.60;;;;;;;10.40;65.41;100548.84;105115;1257;60946;-47
2023/03/22 06:01:42;;;;;;;19.70;15.50;;;;;;;10.42;65.48;100558.70;105422;1260;59688;-47
2023/03/22 06:04:19;;;;;;;19.80;14.80;;;;;;;10.45;65.67;100562.16;105465;1260;65267;-48
2023/03/22 06:07:07;;;;;;;19.50;14.80;;;;;;;10.59;65.74;100566.03;105811;1255;62595;-46
2023/03/22 06:09:43;;;;;;;;;;;;;;;10.78;65.39;100559.80;105481;1259;64688;-47
2023/03/22 06:12:15;;;;;;;18.50;15.20;;;;;;;10.92;64.84;100551.45;105455;1258;59727;-47
2023/03/22 06:14:43;;;;;;;21.90;15.10;;;;;;;10.99;64.61;100554.30;105502;1257;59773;-47
2023/03/22 06:17:41;;;;;;;19.60;15.40;;;;;;;11.06;64.50;100571.34;105111;1261;65376;-47
2023/03/22 06:20:12;;;;;;;21.40;14.60;;;;;;;11.10;64.18;100579.23;106488;1258;62841;-47
2023/03/22 06:22:41;;;;;;;19.80;14.30;;;;;;;11.17;63.92;100585.33;105151;1257;64912;-47
2023/03/22 06:25:08;;;;;;;17.30;13.90;;;;;;;11.29;63.47;100581.80;105413;1260;59777;-47
2023/03/22 06:27:39;;;;;;;21.60;15.60;;;;;;;11.37;62.80;100579.52;105057;1257;59744;-47
2023/03/22 06:30:07;;;;;;;21.90;17.30;;;;;;;11.42;62.55;100580.58;105264;1258;65655;-46
2023/03/22 06:32:46;;;;;;;20.80;16.90;;;;;;;11.46;62.36;100584.09;105067;1255;62739;-46
2023/03/22 06:35:14;;;;;;;18.40;13.90;;;;;;;11.49;62.16;100581.94;105348;1256;64815;-46
2023/03/22 06:37:41;;;;;;;16.60;11.80;;;;;;;11.50;61.81;100583.82;105106;1254;59782;-50
2023/03/22 06:40:10;;;;;;;16.30;12.10;;;;;;;11.54;61.73;100588.73;105035;1255;59761;-48
2023/03/22 06:42:38;;;;;;;18.40;11.90;;;;;;;11.57;61.59;100588.00;105142;1256;64289;-46
2023/03/22 06:45:09;;;;;;;16.40;12.20;;;;;;;11.56;61.41;100588.19;104972;1258;62637;-47
2023/03/22 06:47:38;;;;;;;17.30;12.60;;;;;;;11.55;61.30;100588.65;105177;1254;64026;-48
2023/03/22 06:50:05;;;;;;;15.00;11.40;;;;;;;11.52;61.29;100589.55;105186;1257;59738;-47
2023/03/22 06:52:59;;;;;;;16.40;12.20;;;;;;;11.57;61.19;100591.66;105023;1256;59979;-47
2023/03/22 06:55:26;;;;;;;17.30;13.30;;;;;;;11.63;61.17;100586.25;105196;1258;65274;-47
2023/03/22 06:57:54;;;;;;;17.80;13.70;;;;;;;11.67;61.00;100583.64;105039;1257;62857;-47
2023/03/22 07:00:22;;;;;;;17.10;13.20;;;;;;;11.69;60.93;100580.98;105222;1257;64761;-47
2023/03/22 07:02:49;;;;;;;19.00;14.00;;;;;;;11.73;61.19;100583.32;105061;1257;59570;-47
2023/03/22 07:05:27;;;;;;;18.60;12.60;;;;;;;11.80;61.23;100583.44;105245;1256;59647;-46
2023/03/22 07:07:54;;;;;;;19.20;13.70;;;;;;;11.90;61.06;100582.17;105137;1260;65136;-46
2023/03/22 07:10:23;;;;;;;18.60;13.10;;;;;;;11.98;61.03;100583.77;104891;1257;62567;-46
2023/03/22 07:12:50;;;;;;;19.90;14.30;;;;;;;12.05;60.91;100587.78;105332;1257;64688;-47
2023/03/22 07:15:18;;;;;;;18.40;12.80;;;;;;;12.11;60.75;100588.02;105296;1256;59747;-46
2023/03/22 07:18:01;;;;;;;16.40;12.80;;;;;;;12.15;60.52;100587.43;105010;1258;59767;-46
2023/03/22 07:20:31;;;;;;;16.00;11.60;;;;;;;12.18;60.42;100589.35;104937;1260;65083;-46
2023/03/22 07:22:58;;;;;;;16.00;12.00;;;;;;;12.25;60.05;100592.29;105066;1257;62478;-46
2023/03/22 07:25:27;;;;;;;16.20;11.60;;;;;;;12.28;59.79;100595.58;105311;1254;65067;-46
2023/03/22 07:28:02;;;;;;;15.30;11.90;;;;;;;12.24;59.92;100598.71;105085;1256;59567;-47
2023/03/22 07:30:36;;;;;;;16.20;12.40;;;;;;;12.22;59.84;100602.17;105190;1258;59641;-47
2023/03/22 07:33:05;;;;;;;16.70;12.10;;;;;;;12.21;59.82;100600.69;105212;1260;65388;-46
2023/03/22 07:35:31;;;;;;;17.00;12.00;;;;;;;12.20;59.77;100601.63;105242;1255;62447;-47
2023/03/22 07:37:59;;;;;;;18.30;13.30;;;;;;;12.18;59.81;100604.30;105161;1259;65044;-47
2023/03/22 07:40:29;;;;;;;19.10;12.30;;;;;;;12.18;59.91;100605.90;105189;1260;59623;-47
2023/03/22 07:43:00;;;;;;;16.00;12.50;;;;;;;12.26;59.85;100608.54;105562;1257;59690;-46
2023/03/22 07:46:00;;;;;;;17.60;12.80;;;;;;;12.44;59.63;100603.20;105172;1259;65329;-47
2023/03/22 07:48:54;;;;;;;19.50;15.10;;;;;;;12.56;59.27;100599.50;105179;1258;62520;-46
2023/03/22 07:51:40;;;;;;;;;;;;;;;12.63;59.09;100601.54;105160;1258;64905;-46
2023/03/22 07:54:08;;;;;;;16.70;13.60;;;;;;;12.69;59.15;100603.17;105074;1257;60223;-47
2023/03/22 07:56:35;;;;;;;17.90;13.40;;;;;;;12.73;58.83;100603.17;105119;1259;59535;-47
2023/03/22 07:59:02;;;;;;;20.10;14.10;;;;;;;12.73;58.40;100607.95;105184;1260;65387;-47
2023/03/22 08:01:30;;;;;;;18.20;13.50;;;;;;;12.69;58.51;100608.98;105108;1256;62554;-47
2023/03/22 08:04:07;;;;;;;23.10;13.40;;;;;;;12.72;58.32;100606.95;105158;1258;65108;-48
2023/03/22 08:06:50;;;;;;;18.10;12.90;;;;;;;12.83;57.89;100604.06;105009;1258;59738;-46
2023/03/22 08:09:17;;;;;;;17.60;13.40;;;;;;;12.90;57.62;100601.89;105651;1258;59742;-47
2023/03/22 08:11:44;;;;;;;17.80;13.30;;;;;;;12.92;57.47;100606.98;105124;1261;65395;-46
2023/03/22 08:14:12;;;;;;;16.60;13.30;;;;;;;12.95;57.42;100609.23;105039;1260;62644;-46
2023/03/22 08:16:40;;;;;;;16.80;13.50;;;;;;;12.98;57.29;100609.99;106851;1257;65275;-46
2023/03/22 08:19:07;;;;;;;17.20;12.60;;;;;;;12.99;57.04;100615.77;105085;1257;60514;-48
2023/03/22 08:21:35;;;;;;;18.20;13.40;;;;;;;12.96;56.84;100613.34;105289;1256;60566;-47
2023/03/22 08:24:03;;;;;;;16.20;12.20;;;;;;;12.94;56.94;100612.17;105498;1256;66351;-45
2023/03/22 08:26:34;;;;;;;17.60;12.80;;;;;;;12.94;56.74;100614.12;105322;1256;62354;-45
2023/03/22 08:29:09;;;;;;;16.50;12.10;;;;;;;12.94;56.68;100617.26;105272;1260;65068;-45
2023/03/22 08:31:37;;;;;;;16.10;12.20;;;;;;;12.89;56.77;100615.94;105321;1256;60391;-46
2023/03/22 08:34:04;;;;;;;15.20;11.90;;;;;;;12.86;56.64;100611.74;105137;1263;60589;-49
2023/03/22 08:36:31;;;;;;;16.50;12.10;;;;;;;12.82;56.60;100613.36;105441;1259;65203;-47
2023/03/22 08:39:02;;;;;;;17.40;11.70;;;;;;;12.74;56.91;100613.49;105202;1260;61435;-47
2023/03/22 08:41:51;;;;;;;16.20;11.50;;;;;;;12.72;57.07;100615.53;105248;1256;64669;-47
2023/03/22 08:44:19;;;;;;;17.00;10.90;;;;;;;12.72;56.98;100615.90;105249;1255;60419;-47
2023/03/22 08:46:45;;;;;;;16.40;11.40;;;;;;;12.74;56.95;100614.91;105212;1256;60364;-47
2023/03/22 08:49:13;;;;;;;14.50;11.80;;;;;;;12.81;57.30;100619.20;105167;1256;66220;-45
2023/03/22 08:51:46;;;;;;;15.80;11.70;;;;;;;12.92;57.01;100618.27;105217;1257;62671;-48
2023/03/22 08:54:21;;;;;;;15.10;11.30;;;;;;;12.98;56.65;100614.71;105186;1257;65657;-48
2023/03/22 08:56:51;;;;;;;13.10;9.40;;;;;;;13.01;56.51;100618.92;105196;1258;60499;-48
2023/03/22 08:59:30;;;;;;;13.60;9.40;;;;;;;13.03;56.28;100618.40;105114;1256;60449;-46
2023/03/22 09:02:11;;;;;;;15.30;10.70;;;;;;;13.06;56.21;100615.33;105148;1260;67272;-46
2023/03/22 09:04:38;;;;;;;14.00;10.60;;;;;;;13.08;56.12;100618.84;105146;1261;61656;-46
2023/03/22 09:07:07;;;;;;;12.70;9.20;;;;;;;13.10;56.18;100618.13;105201;1258;65028;-46
2023/03/22 09:09:35;;;;;;;15.50;10.80;;;;;;;13.14;56.15;100616.20;105775;1255;60375;-47
2023/03/22 09:12:04;;;;;;;15.10;10.10;;;;;;;13.17;56.03;100616.78;105161;1258;60488;-47
2023/03/22 09:14:34;;;;;;;14.00;10.00;;;;;;;13.28;56.08;100616.55;105026;1260;66025;-46
2023/03/22 09:17:03;;;;;;;14.60;9.80;;;;;;;13.41;55.59;100617.05;105693;1255;62384;-46
2023/03/22 09:19:31;;;;;;;12.20;7.60;;;;;;;13.51;54.87;100620.95;105211;1260;73431;-47
2023/03/22 09:21:58;;;;;;;13.70;9.00;;;;;;;13.52;54.64;100620.33;105152;1256;60467;-48
2023/03/22 09:24:40;;;;;;;13.40;8.80;;;;;;;13.50;54.90;100622.98;105250;1256;60470;-47
2023/03/22 09:27:08;;;;;;;13.20;9.00;;;;;;;13.47;54.99;100624.62;105391;1260;66000;-48
2023/03/22 09:29:35;;;;;;;11.30;7.90;;;;;;;13.48;54.89;100621.02;105446;1255;62781;-48
2023/03/22 09:32:05;;;;;;;12.20;8.40;;;;;;;13.49;54.89;100622.48;105604;1256;65269;-48
2023/03/22 09:34:33;;;;;;;10.80;7.50;;;;;;;13.53;54.75;100619.14;105245;1258;60534;-48
2023/03/22 09:37:05;;;;;;;11.80;7.60;;;;;;;13.56;54.37;100619.95;105265;1256;60487;-47
2023/03/22 09:39:43;;;;;;;11.20;8.30;;;;;;;13.58;54.22;100621.02;105561;1256;66546;-48
2023/03/22 09:42:24;;;;;;;11.00;7.20;;;;;;;13.62;54.19;100621.74;105265;1256;62743;-47
2023/03/22 09:44:54;;;;;;;13.60;8.80;;;;;;;13.67;54.09;100620.78;105241;1255;65168;-46
2023/03/22 09:47:35;;;;;;;13.10;9.10;;;;;;;13.70;53.86;100618.50;105064;1256;60577;-46
2023/03/22 09:50:22;;;;;;;13.70;9.40;;;;;;;13.72;53.82;100619.92;105183;1256;60562;-46
2023/03/22 09:52:50;;;;;;;12.30;8.70;;;;;;;13.72;53.58;100616.76;105185;1260;65854;-46
2023/03/22 09:55:20;;;;;;;13.20;8.70;;;;;;;13.72;53.34;100619.79;105251;1256;71073;-46
2023/03/22 09:57:57;;;;;;;13.30;8.10;;;;;;;13.71;53.48;100621.26;105224;1256;65082;-47
2023/03/22 10:00:32;;;;;;;14.60;8.60;;;;;;;13.76;53.51;100622.42;105247;1257;60570;-46
2023/03/22 10:03:16;;;;;;;12.00;7.60;;;;;;;13.83;53.07;100616.89;105117;1256;60502;-48
2023/03/22 10:06:08;;;;;;;11.80;7.40;;;;;;;13.90;52.77;100613.95;105915;1255;66130;-47
2023/03/22 10:08:36;;;;;;;8.80;6.20;;;;;;;13.97;52.31;100613.14;105328;1260;62629;-47
2023/03/22 10:11:13;;;;;;;10.60;6.80;;;;;;;14.06;52.10;100615.14;105301;1261;65085;-47
2023/03/22 10:13:44;;;;;;;10.60;7.10;;;;;;;14.19;51.53;100611.99;107351;1257;60546;-47
2023/03/22 10:16:18;;;;;;;11.30;7.30;;;;;;;14.30;50.87;100610.30;105162;1256;60471;-47
2023/03/22 10:18:47;;;;;;;11.00;6.50;;;;;;;14.41;51.04;100612.80;105279;1260;66019;-47
2023/03/22 10:21:14;;;;;;;10.90;7.60;;;;;;;14.59;50.90;100609.91;105180;1255;62803;-47
2023/03/22 10:24:03;;;;;;;11.60;7.20;;;;;;;14.79;50.00;100606.16;105113;1260;65020;-47
2023/03/22 10:26:36;;;;;;;9.90;7.10;;;;;;;14.91;49.54;100610.65;105289;1256;61258;-46
2023/03/22 10:29:24;;;;;;;11.90;7.60;;;;;;;15.01;49.36;100608.30;105177;1257;60588;-44
2023/03/22 10:31:51;;;;;;;12.20;7.80;;;;;;;15.06;48.79;100606.08;105845;1260;66189;-47
2023/03/22 10:34:19;;;;;;;10.70;7.70;;;;;;;15.06;48.84;100603.58;105352;1256;64411;-47
2023/03/22 10:36:48;;;;;;;9.50;7.20;;;;;;;15.03;48.73;100605.64;105323;1257;64876;-47
2023/03/22 10:39:31;;;;;;;11.20;7.00;;;;;;;15.02;48.86;100603.45;105356;1256;60600;-48
2023/03/22 10:42:00;;;;;;;10.20;6.90;;;;;;;15.02;48.66;100603.04;105291;1257;60461;-46
2023/03/22 10:44:27;;;;;;;8.10;5.80;;;;;;;15.01;48.56;100605.64;105491;1257;66197;-46
2023/03/22 10:46:58;;;;;;;10.40;6.70;;;;;;;14.99;48.58;100605.29;105448;1256;62816;-46
2023/03/22 10:49:31;;;;;;;9.20;6.60;;;;;;;14.98;48.19;100603.79;105407;1260;64987;-46
2023/03/22 10:52:02;;;;;;;9.80;6.10;;;;;;;14.95;48.25;100604.30;105284;1257;60361;-46
2023/03/22 10:54:30;;;;;;;12.00;6.50;;;;;;;14.90;48.36;100601.89;105305;1257;60592;-46
2023/03/22 10:56:57;;;;;;;9.10;6.10;;;;;;;14.88;48.16;100603.66;105440;1259;65951;-46
2023/03/22 10:59:46;;;;;;;9.40;6.70;;;;;;;14.85;47.75;100603.58;105073;1256;62619;-46
2023/03/22 11:02:16;;;;;;;9.40;6.50;;;;;;;14.83;47.80;100602.74;107664;1256;64866;-46
2023/03/22 11:04:52;;;;;;;8.40;5.70;;;;;;;14.83;47.67;100600.62;105300;1256;60492;-49
2023/03/22 11:07:36;;;;;;;10.00;6.50;;;;;;;14.86;47.98;100598.57;106367;1255;60381;-46
2023/03/22 11:10:03;;;;;;;10.00;6.30;;;;;;;14.91;47.80;100594.06;105542;1260;66138;-46
2023/03/22 11:12:40;;;;;;;7.10;4.90;;;;;;;14.96;47.70;100594.59;105123;1260;71455;-47
2023/03/22 11:15:38;;;;;;;8.10;5.30;;;;;;;15.04;47.11;100587.36;105252;1260;64113;-46
2023/03/22 11:18:07;;;;;;;8.90;6.00;;;;;;;15.16;46.50;100585.89;105353;1256;60605;-47
2023/03/22 11:20:34;;;;;;;9.70;6.30;;;;;;;15.25;45.58;100584.30;105172;1256;60554;-46
2023/03/22 11:23:03;;;;;;;8.80;5.80;;;;;;;15.33;45.33;100581.44;104990;1260;66395;-44
2023/03/22 11:25:32;;;;;;;7.80;4.90;;;;;;;15.44;45.46;100577.34;105060;1256;62395;-45
2023/03/22 11:28:03;;;;;;;8.40;5.90;;;;;;;15.57;45.34;100571.14;108988;1255;64029;-46
2023/03/22 11:30:31;;;;;;;7.90;5.20;;;;;;;15.63;44.85;100569.95;109017;1255;58242;-46
2023/03/22 11:33:05;;;;;;;12.90;7.70;;;;;;;15.69;45.18;100568.50;109080;1255;60422;-47
2023/03/22 11:35:35;;;;;;;8.20;6.20;;;;;;;15.74;45.56;100570.86;107615;1255;66267;-48
2023/03/22 11:38:02;;;;;;;10.70;7.10;;;;;;;15.81;45.61;100571.73;105339;1258;62489;-46
2023/03/22 11:40:33;;;;;;;10.50;7.10;;;;;;;15.97;45.52;100565.92;105181;1258;65068;-47
2023/03/22 11:43:09;;;;;;;9.20;6.60;;;;;;;16.17;45.30;100569.42;105271;1256;60464;-47
2023/03/22 11:45:44;;;;;;;10.60;6.80;;;;;;;16.37;44.82;100563.55;105075;1257;60750;-48
2023/03/22 11:48:16;;;;;;;10.10;6.70;;;;;;;16.51;44.54;100563.14;105399;1256;66455;-46